createdAt,value
2022-08-12T00:00:16.334Z,1.30
2022-08-12T00:03:02.111Z,1.30
2022-08-12T00:06:04.832Z,1.30
2022-08-12T00:08:52.531Z,1.67
2022-08-12T00:11:38.499Z,1.38
2022-08-12T00:14:24.431Z,1.57
2022-08-12T00:17:10.358Z,1.43
2022-08-12T00:19:55.592Z,1.60
2022-08-12T00:22:42.069Z,1.48
2022-08-12T00:25:55.719Z,1.25
2022-08-12T00:28:33.038Z,1.40
2022-08-12T00:31:18.927Z,1.50
2022-08-12T00:34:03.806Z,1.17
2022-08-12T00:36:50.638Z,1.30
2022-08-12T00:39:36.785Z,1.58
2022-08-12T00:42:13.171Z,1.30
2022-08-12T00:44:44.124Z,1.33
2022-08-12T00:47:25.435Z,1.50
2022-08-12T00:49:54.749Z,1.52
2022-08-12T00:52:22.692Z,1.45
2022-08-12T00:54:58.717Z,1.42
2022-08-12T00:57:32.374Z,1.35
2022-08-12T01:00:01.604Z,1.58
2022-08-12T01:02:29.620Z,1.25
2022-08-12T01:05:17.656Z,1.45
2022-08-12T01:08:03.806Z,1.42
2022-08-12T01:10:50.703Z,1.70
2022-08-12T01:15:49.631Z,1.00
2022-08-12T01:18:17.848Z,1.48
2022-08-12T01:20:53.411Z,1.70
2022-08-12T01:23:43.654Z,1.37
2022-08-12T01:26:12.210Z,1.85
2022-08-12T01:28:40.779Z,1.73
2022-08-12T01:31:11.307Z,1.70
2022-08-12T01:33:45.360Z,1.60
2022-08-12T01:36:14.512Z,1.45
2022-08-12T01:38:43.962Z,1.88
2022-08-12T01:41:11.822Z,1.42
2022-08-12T01:43:39.494Z,1.40
2022-08-12T01:46:14.727Z,1.73
2022-08-12T01:49:09.198Z,1.33
2022-08-12T01:52:15.256Z,1.27
2022-08-12T01:54:40.533Z,1.42
2022-08-12T01:57:13.212Z,1.63
2022-08-12T02:00:00.438Z,1.48
2022-08-12T02:02:30.086Z,1.42
2022-08-12T02:05:33.209Z,1.35
2022-08-12T02:08:46.592Z,1.55
2022-08-12T02:11:20.174Z,1.33
2022-08-12T02:14:01.786Z,1.80
2022-08-12T02:16:47.129Z,1.60
2022-08-12T02:19:22.262Z,1.27
2022-08-12T02:21:56.504Z,1.20
2022-08-12T02:24:24.180Z,1.42
2022-08-12T02:26:57.051Z,1.38
2022-08-12T02:29:24.249Z,2.00
2022-08-12T02:31:52.782Z,1.50
2022-08-12T02:34:20.292Z,1.58
2022-08-12T02:36:48.110Z,1.52
2022-08-12T02:39:16.431Z,1.40
2022-08-12T02:41:44.780Z,1.23
2022-08-12T02:44:15.294Z,1.52
2022-08-12T02:46:50.427Z,1.50
2022-08-12T02:49:30.197Z,1.40
2022-08-12T02:51:59.349Z,1.42
2022-08-12T02:54:26.662Z,1.38
2022-08-12T02:56:55.379Z,1.42
2022-08-12T02:59:24.450Z,1.55
2022-08-12T03:01:56.781Z,1.52
2022-08-12T03:04:33.954Z,1.55
2022-08-12T03:07:22.215Z,1.35
2022-08-12T03:10:03.625Z,1.52
2022-08-12T03:12:36.232Z,1.45
2022-08-12T03:15:18.900Z,1.20
2022-08-12T03:18:25.366Z,1.30
2022-08-12T03:20:40.377Z,1.35
2022-08-12T03:23:11.853Z,1.38
2022-08-12T03:25:51.593Z,1.30
2022-08-12T03:28:39.176Z,1.42
2022-08-12T03:31:07.743Z,1.50
2022-08-12T03:33:39.269Z,1.55
2022-08-12T03:36:08.138Z,1.73
2022-08-12T03:38:38.630Z,1.88
2022-08-12T03:41:30.619Z,1.38
2022-08-12T03:44:37.993Z,1.40
2022-08-12T03:47:38.291Z,1.48
2022-08-12T03:50:24.270Z,1.80
2022-08-12T03:53:09.773Z,1.47
2022-08-12T03:55:55.922Z,1.23
2022-08-12T03:58:41.358Z,1.40
2022-08-12T04:01:08.236Z,1.40
2022-08-12T04:03:53.784Z,1.70
2022-08-12T04:06:35.460Z,1.42
2022-08-12T04:09:15.773Z,1.17
2022-08-12T04:12:09.014Z,1.55
2022-08-12T04:14:35.737Z,1.52
2022-08-12T04:17:03.456Z,1.20
2022-08-12T04:19:31.108Z,1.20
2022-08-12T04:22:02.338Z,1.20
2022-08-12T04:24:40.735Z,1.55
2022-08-12T04:27:10.123Z,1.25
2022-08-12T04:30:30.779Z,1.30
2022-08-12T04:32:26.103Z,1.52
2022-08-12T04:34:53.381Z,1.48
2022-08-12T04:37:20.114Z,1.20
2022-08-12T04:39:46.904Z,1.27
2022-08-12T04:42:13.891Z,1.50
2022-08-12T04:44:42.278Z,1.63
2022-08-12T04:47:13.069Z,1.45
2022-08-12T04:49:41.043Z,1.50
2022-08-12T04:52:08.019Z,1.63
2022-08-12T04:54:34.860Z,1.70
2022-08-12T04:57:04.213Z,1.63
2022-08-12T04:59:47.908Z,1.33
2022-08-12T05:02:20.399Z,1.33
2022-08-12T05:04:52.353Z,1.45
2022-08-12T05:07:20.466Z,1.50
2022-08-12T05:10:00.885Z,1.35
2022-08-12T05:12:38.779Z,2.28
2022-08-12T05:15:19.748Z,3.20
2022-08-12T05:17:54.069Z,3.17
2022-08-12T05:20:22.713Z,4.03
2022-08-12T05:22:53.248Z,3.10
2022-08-12T05:25:25.003Z,3.15
2022-08-12T05:27:58.602Z,3.38
2022-08-12T05:30:27.248Z,3.33
2022-08-12T05:32:55.793Z,3.30
2022-08-12T05:35:27.740Z,3.47
2022-08-12T05:38:14.816Z,3.70
2022-08-12T05:40:42.167Z,3.75
2022-08-12T05:43:09.069Z,4.00
2022-08-12T05:45:35.803Z,4.10
2022-08-12T05:48:02.885Z,3.30
2022-08-12T05:50:29.722Z,3.40
2022-08-12T05:52:56.459Z,3.60
2022-08-12T05:55:31.707Z,3.58
2022-08-12T05:57:58.692Z,2.58
2022-08-12T06:00:26.325Z,3.10
2022-08-12T06:02:58.596Z,3.10
2022-08-12T06:05:25.334Z,3.05
2022-08-12T06:08:00.889Z,3.05
2022-08-12T06:10:32.535Z,3.40
2022-08-12T06:13:04.449Z,2.83
2022-08-12T06:15:32.832Z,2.92
2022-08-12T06:18:13.763Z,4.50
2022-08-12T06:20:43.537Z,2.72
2022-08-12T06:23:11.602Z,2.70
2022-08-12T06:25:38.657Z,2.30
2022-08-12T06:28:17.588Z,2.13
2022-08-12T06:30:57.218Z,2.42
2022-08-12T06:33:59.876Z,2.30
2022-08-12T06:38:49.234Z,2.22
2022-08-12T06:41:34.944Z,2.08
2022-08-12T06:44:05.986Z,2.10
2022-08-12T06:46:36.951Z,2.08
2022-08-12T06:49:04.169Z,1.95
2022-08-12T06:51:32.527Z,1.90
2022-08-12T06:54:01.024Z,2.03
2022-08-12T06:56:59.564Z,1.75
2022-08-12T06:59:15.955Z,2.38
2022-08-12T07:01:49.817Z,1.58
2022-08-12T07:07:10.337Z,2.25
2022-08-12T07:10:04.759Z,2.20
2022-08-12T07:12:28.347Z,1.42
2022-08-12T07:14:56.880Z,1.88
2022-08-12T07:17:23.580Z,1.75
2022-08-12T07:19:52.173Z,1.50
2022-08-12T07:22:19.051Z,1.90
2022-08-12T07:25:05.930Z,2.10
2022-08-12T07:30:05.384Z,1.60
2022-08-12T07:32:32.314Z,1.80
2022-08-12T07:34:59.043Z,1.80
2022-08-12T07:37:25.785Z,1.90
2022-08-12T07:40:00.662Z,1.63
2022-08-12T07:42:29.456Z,1.90
2022-08-12T07:44:56.671Z,1.48
2022-08-12T07:47:24.355Z,1.63
2022-08-12T07:50:05.176Z,1.50
2022-08-12T07:52:34.763Z,1.55
2022-08-12T07:55:02.248Z,1.75
2022-08-12T07:57:28.980Z,1.90
2022-08-12T07:59:56.199Z,1.80
2022-08-12T08:02:26.750Z,1.40
2022-08-12T08:04:57.545Z,1.58
2022-08-12T08:07:30.795Z,1.35
2022-08-12T08:09:59.657Z,1.50
2022-08-12T08:12:48.489Z,1.50
2022-08-12T08:15:15.945Z,1.98
2022-08-12T08:17:57.936Z,1.33
2022-08-12T08:20:28.653Z,1.80
2022-08-12T08:22:59.135Z,1.48
2022-08-12T08:25:36.386Z,1.15
2022-08-12T08:28:07.555Z,1.55
2022-08-12T08:30:35.220Z,1.25
2022-08-12T08:33:02.206Z,1.77
2022-08-12T08:35:46.333Z,1.70
2022-08-12T08:38:32.177Z,1.52
2022-08-12T08:42:17.945Z,1.30
2022-08-12T08:44:05.995Z,1.20
2022-08-12T08:46:38.051Z,1.60
2022-08-12T08:49:05.614Z,1.40
2022-08-12T08:51:32.517Z,1.60
2022-08-12T08:53:59.234Z,1.50
2022-08-12T08:56:27.245Z,1.52
2022-08-12T08:58:53.970Z,1.48
2022-08-12T09:01:23.614Z,1.75
2022-08-12T09:05:08.300Z,1.30
2022-08-12T09:06:39.860Z,1.30
2022-08-12T09:12:27.621Z,1.92
2022-08-12T09:14:54.661Z,2.00
2022-08-12T09:17:22.460Z,1.60
2022-08-12T09:22:37.698Z,1.50
2022-08-12T09:25:07.518Z,1.90
2022-08-12T09:28:03.315Z,1.70
2022-08-12T09:30:41.829Z,1.60
2022-08-12T09:33:19.307Z,2.10
2022-08-12T09:36:03.013Z,1.40
2022-08-12T09:38:33.084Z,1.58
2022-08-12T09:42:33.688Z,1.60
2022-08-12T09:44:38.526Z,1.75
2022-08-12T09:46:55.965Z,1.88
2022-08-12T09:49:25.111Z,1.38
2022-08-12T09:51:55.660Z,1.52
2022-08-12T09:54:34.794Z,1.58
2022-08-12T09:58:45.515Z,1.75
2022-08-12T10:00:19.119Z,1.80
2022-08-12T10:03:06.040Z,1.60
2022-08-12T10:06:19.788Z,2.00
2022-08-12T10:08:27.576Z,1.23
2022-08-12T10:11:18.460Z,1.67
2022-08-12T10:13:48.830Z,1.17
2022-08-12T10:16:22.196Z,1.58
2022-08-12T10:19:01.588Z,1.23
2022-08-12T10:21:37.415Z,1.30
2022-08-12T10:24:09.758Z,1.60
2022-08-12T10:26:57.792Z,1.92
2022-08-12T10:30:37.613Z,1.52
2022-08-12T10:33:01.854Z,1.67
2022-08-12T10:35:10.734Z,1.75
2022-08-12T10:38:34.602Z,1.60
2022-08-12T10:40:31.519Z,1.20
2022-08-12T10:43:18.325Z,1.63
2022-08-12T10:45:47.307Z,1.40
2022-08-12T10:48:21.130Z,1.60
2022-08-12T10:51:02.204Z,1.48
2022-08-12T10:53:45.504Z,1.48
2022-08-12T10:56:17.592Z,2.05
2022-08-12T10:58:47.039Z,1.75
2022-08-12T11:01:50.291Z,1.23
2022-08-12T11:04:22.744Z,0.80
2022-08-12T11:07:05.442Z,0.80
2022-08-12T11:09:56.050Z,0.95
2022-08-12T11:12:55.297Z,1.15
2022-08-12T11:15:18.695Z,1.30
2022-08-12T11:17:53.866Z,1.38
2022-08-12T11:20:24.270Z,1.13
2022-08-12T11:25:56.680Z,1.20
2022-08-12T11:28:14.931Z,1.10
2022-08-12T11:30:43.576Z,1.23
2022-08-12T11:33:11.951Z,1.25
2022-08-12T11:35:41.633Z,1.38
2022-08-12T11:38:12.602Z,1.40
2022-08-12T11:40:42.486Z,1.38
2022-08-12T11:43:19.562Z,1.50
2022-08-12T11:45:47.549Z,1.17
2022-08-12T11:48:19.432Z,1.30
2022-08-12T11:50:53.740Z,1.77
2022-08-12T11:53:59.221Z,1.50
2022-08-12T11:56:08.088Z,1.80
2022-08-12T12:01:58.109Z,1.27
2022-08-12T12:02:03.198Z,1.33
2022-08-12T12:06:38.503Z,1.20
2022-08-12T12:09:08.163Z,1.67
2022-08-12T12:11:49.077Z,1.27
2022-08-12T12:14:16.306Z,1.35
2022-08-12T12:16:48.262Z,1.40
2022-08-12T12:19:19.179Z,1.15
2022-08-12T12:21:48.695Z,1.27
2022-08-12T12:24:21.117Z,1.80
2022-08-12T12:27:00.101Z,1.40
2022-08-12T12:30:17.963Z,1.30
2022-08-12T12:32:18.817Z,1.42
2022-08-12T12:35:14.196Z,1.20
2022-08-12T12:38:04.973Z,1.17
2022-08-12T12:40:20.816Z,1.02
2022-08-12T12:42:56.007Z,1.40
2022-08-12T12:45:32.351Z,1.33
2022-08-12T12:48:03.349Z,1.05
2022-08-12T12:50:45.271Z,1.20
2022-08-12T12:54:07.070Z,1.13
2022-08-12T12:56:15.714Z,1.35
2022-08-12T12:58:43.807Z,1.30
2022-08-12T13:01:27.944Z,1.20
2022-08-12T13:04:02.701Z,1.15
2022-08-12T13:06:31.395Z,1.30
2022-08-12T13:09:02.520Z,1.00
2022-08-12T13:11:39.130Z,0.88
2022-08-12T13:14:12.843Z,0.60
2022-08-12T13:16:55.379Z,0.77
2022-08-12T13:19:36.490Z,0.80
2022-08-12T13:22:20.487Z,0.90
2022-08-12T13:24:55.747Z,0.90
2022-08-12T13:27:28.078Z,0.90
2022-08-12T13:30:00.832Z,0.85
2022-08-12T13:32:31.591Z,0.95
2022-08-12T13:35:03.801Z,0.93
2022-08-12T13:37:44.094Z,1.00
2022-08-12T13:42:46.507Z,0.80
2022-08-12T13:45:13.863Z,0.93
2022-08-12T13:48:02.177Z,1.20
2022-08-12T13:50:36.599Z,1.42
2022-08-12T13:53:24.549Z,1.13
2022-08-12T13:55:59.848Z,1.00
2022-08-12T13:58:30.123Z,1.20
2022-08-12T14:00:58.461Z,1.10
2022-08-12T14:03:28.314Z,1.10
2022-08-12T14:06:15.474Z,0.98
2022-08-12T14:08:43.309Z,1.00
2022-08-12T14:11:12.316Z,1.02
2022-08-12T14:14:03.662Z,1.15
2022-08-12T14:16:37.834Z,0.88
2022-08-12T14:19:22.237Z,1.25
2022-08-12T14:21:59.472Z,0.90
2022-08-12T14:24:30.816Z,1.10
2022-08-12T14:27:01.840Z,0.95
2022-08-12T14:29:38.110Z,0.80
2022-08-12T14:32:17.915Z,0.95
2022-08-12T14:34:47.182Z,0.70
2022-08-12T14:37:55.386Z,0.85
2022-08-12T14:40:01.228Z,1.00
2022-08-12T14:42:28.527Z,1.00
2022-08-12T14:44:59.341Z,1.02
2022-08-12T14:47:35.067Z,1.00
2022-08-12T14:50:57.283Z,0.95
2022-08-12T14:58:31.810Z,1.13
2022-08-12T15:01:19.905Z,1.17
2022-08-12T15:03:53.882Z,1.00
2022-08-12T15:06:43.963Z,1.13
2022-08-12T15:09:15.958Z,1.35
2022-08-12T15:11:54.861Z,1.33
2022-08-12T15:14:27.663Z,1.40
2022-08-12T15:16:57.301Z,1.10
2022-08-12T15:20:11.620Z,1.05
2022-08-12T15:22:36.795Z,1.50
2022-08-12T15:25:07.503Z,1.17
2022-08-12T15:28:04.393Z,1.02
2022-08-12T15:30:30.537Z,1.67
2022-08-12T15:32:57.441Z,1.10
2022-08-12T15:35:38.331Z,1.00
2022-08-12T15:38:19.452Z,1.15
2022-08-12T15:40:49.680Z,1.17
2022-08-12T15:43:51.543Z,1.25
2022-08-12T15:46:05.912Z,1.30
2022-08-12T15:48:32.925Z,1.35
2022-08-12T15:51:02.834Z,1.42
2022-08-12T15:54:05.630Z,1.35
2022-08-12T15:56:53.969Z,1.77
2022-08-12T15:59:21.100Z,1.40
2022-08-12T16:07:09.166Z,1.30
2022-08-12T16:09:55.948Z,1.33
2022-08-12T16:12:25.781Z,1.40
2022-08-12T16:14:55.169Z,1.52
2022-08-12T16:18:08.933Z,4.93
2022-08-12T16:20:15.096Z,2.05
2022-08-12T16:22:43.346Z,2.00
2022-08-12T16:25:14.409Z,1.83
2022-08-12T16:27:52.128Z,2.58
2022-08-12T16:30:20.228Z,2.65
2022-08-12T16:32:57.696Z,2.67
2022-08-12T16:35:25.431Z,2.70
2022-08-12T16:38:27.915Z,2.25
2022-08-12T16:40:46.267Z,2.50
2022-08-12T16:43:29.192Z,2.05
2022-08-12T16:46:23.861Z,2.53
2022-08-12T16:48:50.513Z,2.47
2022-08-12T16:51:17.932Z,2.47
2022-08-12T16:53:45.696Z,2.38
2022-08-12T16:56:15.428Z,2.22
2022-08-12T16:58:43.522Z,2.10
2022-08-12T17:01:14.651Z,1.90
2022-08-12T17:03:52.615Z,1.73
2022-08-12T17:06:27.434Z,1.70
2022-08-12T17:09:02.690Z,2.13
2022-08-12T17:11:32.490Z,1.55
2022-08-12T17:13:59.686Z,1.70
2022-08-12T17:16:30.328Z,1.67
2022-08-12T17:19:03.090Z,1.75
2022-08-12T17:21:41.609Z,1.67
2022-08-12T17:24:28.969Z,1.40
2022-08-12T17:26:59.083Z,1.50
2022-08-12T17:30:01.040Z,1.20
2022-08-12T17:32:14.564Z,1.27
2022-08-12T17:35:00.409Z,1.80
2022-08-12T17:37:27.585Z,1.33
2022-08-12T17:40:15.100Z,1.88
2022-08-12T17:42:47.215Z,1.45
2022-08-12T17:45:19.611Z,1.48
2022-08-12T17:48:01.001Z,1.45
2022-08-12T17:50:32.470Z,1.20
2022-08-12T17:53:03.114Z,1.90
2022-08-12T17:55:44.713Z,1.50
2022-08-12T17:58:35.507Z,1.08
2022-08-12T18:01:11.176Z,1.23
2022-08-12T18:04:05.733Z,1.55
2022-08-12T18:06:28.081Z,1.48
2022-08-12T18:08:58.833Z,1.58
2022-08-12T18:12:05.951Z,1.52
2022-08-12T18:14:31.885Z,1.75
2022-08-12T18:17:00.339Z,1.33
2022-08-12T18:20:03.540Z,1.52
2022-08-12T18:22:21.990Z,1.60
2022-08-12T18:25:04.099Z,1.70
2022-08-12T18:27:43.120Z,1.80
2022-08-12T18:30:20.830Z,1.42
2022-08-12T18:33:04.638Z,1.63
2022-08-12T18:35:47.434Z,1.97
2022-08-12T18:38:22.166Z,1.52
2022-08-12T18:41:09.660Z,1.38
2022-08-12T18:43:57.541Z,1.60
2022-08-12T18:46:48.905Z,1.77
2022-08-12T18:49:28.415Z,1.13
2022-08-12T18:52:04.054Z,1.08
2022-08-12T18:54:34.975Z,1.60
2022-08-12T18:57:16.490Z,1.50
2022-08-12T19:00:00.868Z,1.35
2022-08-12T19:02:33.842Z,1.50
2022-08-12T19:05:03.211Z,1.85
2022-08-12T19:07:49.616Z,1.30
2022-08-12T19:10:27.796Z,1.33
2022-08-12T19:13:21.010Z,1.38
2022-08-12T19:15:53.557Z,1.57
2022-08-12T19:18:21.937Z,1.33
2022-08-12T19:20:50.898Z,1.33
2022-08-12T19:23:21.240Z,1.40
2022-08-12T19:25:59.845Z,0.90
2022-08-12T19:28:30.400Z,1.10
2022-08-12T19:31:45.033Z,1.50
2022-08-12T19:36:06.703Z,1.10
2022-08-12T19:38:04.236Z,1.27
2022-08-12T19:40:32.518Z,0.85
2022-08-12T19:43:20.711Z,0.82
2022-08-12T19:45:54.562Z,1.00
2022-08-12T19:48:30.457Z,1.00
2022-08-12T19:51:09.344Z,0.82
2022-08-12T19:53:57.998Z,1.20
2022-08-12T19:56:28.819Z,1.13
2022-08-12T19:59:20.599Z,0.70
2022-08-12T20:02:02.692Z,1.00
2022-08-12T20:04:32.534Z,1.10
2022-08-12T20:07:00.218Z,1.02
2022-08-12T20:09:28.417Z,1.00
2022-08-12T20:12:09.752Z,0.90
2022-08-12T20:14:46.038Z,0.90
2022-08-12T20:17:13.493Z,1.08
2022-08-12T20:20:00.914Z,0.93
2022-08-12T20:22:39.311Z,1.30
2022-08-12T20:25:10.693Z,1.00
2022-08-12T20:28:02.875Z,0.80
2022-08-12T20:30:37.922Z,0.80
2022-08-12T20:33:18.980Z,0.68
2022-08-12T20:36:14.395Z,0.73
2022-08-12T20:38:40.050Z,0.70
2022-08-12T20:41:17.575Z,2.38
2022-08-12T20:43:49.466Z,1.45
2022-08-12T20:46:18.030Z,1.23
2022-08-12T20:48:54.901Z,1.30
2022-08-12T20:51:24.287Z,1.48
2022-08-12T20:53:58.978Z,1.40
2022-08-12T20:56:34.729Z,1.27
2022-08-12T20:59:19.708Z,1.67
2022-08-12T21:01:48.608Z,1.73
2022-08-12T21:04:36.510Z,1.48
2022-08-12T21:07:09.442Z,1.13
2022-08-12T21:09:44.656Z,1.33
2022-08-12T21:12:28.783Z,1.70
2022-08-12T21:15:23.018Z,1.42
2022-08-12T21:18:08.244Z,1.20
2022-08-12T21:20:38.434Z,1.60
2022-08-12T21:23:06.535Z,1.30
2022-08-12T21:25:44.714Z,1.55
2022-08-12T21:28:13.968Z,1.38
2022-08-12T21:31:11.386Z,1.52
2022-08-12T21:33:31.925Z,1.50
2022-08-12T21:36:02.718Z,1.65
2022-08-12T21:38:34.846Z,1.50
2022-08-12T21:41:06.747Z,1.75
2022-08-12T21:43:44.377Z,1.50
2022-08-12T21:46:33.649Z,1.52
2022-08-12T21:51:49.707Z,1.33
2022-08-12T21:54:22.658Z,1.27
2022-08-12T21:56:55.599Z,1.92
2022-08-12T21:59:22.906Z,1.50
2022-08-12T22:01:50.024Z,1.23
2022-08-12T22:04:40.652Z,1.23
2022-08-12T22:07:18.608Z,1.05
2022-08-12T22:09:45.712Z,0.90
2022-08-12T22:12:31.363Z,0.98
2022-08-12T22:14:59.683Z,0.95
2022-08-12T22:17:49.948Z,1.00
2022-08-12T22:20:17.443Z,1.15
2022-08-12T22:22:56.375Z,0.80
2022-08-12T22:25:26.727Z,1.00
2022-08-12T22:28:12.557Z,0.88
2022-08-12T22:30:57.825Z,0.80
2022-08-12T22:33:24.771Z,0.80
2022-08-12T22:35:59.578Z,0.80
2022-08-12T22:38:29.287Z,0.98
2022-08-12T22:41:02.140Z,0.90
2022-08-12T22:43:59.633Z,0.98
2022-08-12T22:46:53.613Z,0.90
2022-08-12T22:49:49.097Z,1.02
2022-08-12T22:52:14.024Z,0.93
2022-08-12T22:54:46.268Z,0.93
2022-08-12T22:57:49.783Z,1.05
2022-08-12T23:00:24.348Z,1.00
2022-08-12T23:02:58.407Z,1.33
2022-08-12T23:05:36.970Z,1.15
2022-08-12T23:08:18.124Z,1.08
2022-08-12T23:10:47.148Z,1.10
2022-08-12T23:13:43.374Z,0.80
2022-08-12T23:16:27.960Z,1.02
2022-08-12T23:19:09.989Z,1.13
2022-08-12T23:22:05.322Z,1.13
2022-08-12T23:24:54.135Z,0.80
2022-08-12T23:27:51.078Z,1.20
2022-08-12T23:30:32.004Z,0.85
2022-08-12T23:33:13.045Z,0.80
2022-08-12T23:35:53.753Z,0.90
2022-08-12T23:38:31.417Z,0.95
2022-08-12T23:41:00.249Z,0.95
2022-08-12T23:43:38.430Z,1.00
2022-08-12T23:46:08.972Z,0.80
2022-08-12T23:48:37.850Z,0.90
2022-08-12T23:51:22.370Z,0.95
2022-08-12T23:53:54.997Z,1.00
2022-08-12T23:56:23.867Z,1.05
2022-08-12T23:58:52.981Z,1.05
